Aeroporto :
LOGIN :

Iscrizione | Disclaimer

   EN    FR    IT 

 










Sommario :    VFR   VFR Marginale   IFR   IFR Intensivo   IFR Molto Intensivo
Visibilità : 
Base nubi : 
>= 8 km
>= 3000ft
5 / 8 km
1000 / 3000 ft
1500m / 5 km
500 / 1000 ft
800 / 1500m
200 / 500 ft
< 800m
< 200 ft
Simboli :   Temporali  Nebbia  Neve Forte  Precipitazioni Forti  Vento > 20 kt
SIGMETs :   Varie  Temporali  Ghiacco  Turbolenza  Onda orograficha  Ceneri Vulcaniche






- Altitudine del aeroporto : 230 ft


ETHB - Buckeburg Army

ULTIMO METAR :
  • 140620Z 17003KT 9999 FEW110 SCT260 13/11 Q1014 BLU+BLU+ TEMPO BLU

METARs OBSOLETI :
  • 140520Z 22006KT 9999 FEW110 SCT350 13/11 Q1014 BLU+BLU+ TEMPO BLU
  • 140420Z 26006KT 9999 FEW040 14/11 Q1013 BLU+BLU+ TEMPO BLU

TAF TAF ETHB
Valido dal 14 a 05 ore il 14 a 14 ore UTC


140415Z 1405/1414 22010KT 9999 NSW FEW020 SCT040
BECMG 1409/1411 15005KT 9999 NSW SCT040 BKN200



MetMap, La meteo Aeronautica in un colpo d'occhio ! - Copyright ORBIFLY Dicembre 2007 - Disclaimer

ORBIFLY MET'MAP TEAM :

Programmazione e sviluppo : Alexandra Zaïnal
Concezione e sviluppo : Baudouin d'Aumeries
Co-Programmazione e sviluppo : Marc-Olivier Méhu
Supporto tecnico e logistico : Manuel Goepfert
Aiuto per la traduzione : Arnaldo La Scala

Contatto : metmap@orbifly.com




FONTI E CREDITI :

   NOAA